Time;durP1;ratioP1;P1;durP2;ratioP2;P2;SDS_P1;SDS_P2;PMS_P1;PMS_P2;Temp;Humidity;BMP_temperature;BMP_pressure;BME280_temperature;BME280_humidity;BME280_pressure;Samples;Min_cycle;Max_cycle;Signal;HPM_P1;HPM_P2
2023/01/27 00:01:33;;;;;;;2.58;0.75;;;7.00;99.90;;;;;;6218239;23;20032;-77
2023/01/27 00:03:59;;;;;;;3.10;1.10;;;7.00;99.90;;;;;;6220459;23;20004;-77
2023/01/27 00:06:25;;;;;;;1.88;0.77;;;7.00;99.90;;;;;;6219700;23;20438;-77
2023/01/27 00:08:50;;;;;;;1.98;0.70;;;7.00;99.90;;;;;;6220360;23;20024;-77
2023/01/27 00:14:00;;;;;;;2.13;0.65;;;6.90;99.90;;;;;;6220076;23;20015;-76
2023/01/27 00:16:26;;;;;;;2.00;0.52;;;6.90;99.90;;;;;;6220050;23;20025;-76
2023/01/27 00:18:52;;;;;;;1.60;0.50;;;6.90;99.90;;;;;;6218714;23;20009;-78
2023/01/27 00:26:46;;;;;;;2.22;0.73;;;6.90;99.90;;;;;;6220088;23;20106;-77
2023/01/27 00:29:11;;;;;;;2.95;0.68;;;6.90;99.90;;;;;;6220117;23;20016;-77
2023/01/27 00:34:21;;;;;;;2.45;0.80;;;6.80;99.90;;;;;;6220074;23;20065;-77
2023/01/27 00:36:47;;;;;;;2.40;0.70;;;6.90;99.90;;;;;;6219732;23;20426;-77
2023/01/27 00:39:12;;;;;;;3.80;1.42;;;6.90;99.90;;;;;;6219980;23;20000;-77
2023/01/27 00:41:39;;;;;;;2.13;0.60;;;6.90;99.90;;;;;;6220068;23;20004;-77
2023/01/27 00:44:05;;;;;;;2.78;0.60;;;6.90;99.90;;;;;;6218775;23;20846;-78
2023/01/27 00:46:31;;;;;;;1.92;0.57;;;6.90;99.90;;;;;;6220012;23;20434;-77
2023/01/27 00:48:56;;;;;;;2.13;0.63;;;6.90;99.90;;;;;;6220067;23;20032;-77
2023/01/27 00:51:23;;;;;;;2.13;0.52;;;6.90;99.90;;;;;;6219572;23;20001;-77
2023/01/27 00:53:49;;;;;;;1.95;0.50;;;6.90;99.90;;;;;;6220585;23;20004;-77
2023/01/27 00:56:15;;;;;;;1.30;0.50;;;6.90;99.90;;;;;;6221882;23;20000;-77
2023/01/27 00:58:40;;;;;;;3.78;0.63;;;6.90;99.90;;;;;;6222309;23;20001;-77
2023/01/27 01:01:10;;;;;;;3.67;0.82;;;6.90;99.90;;;;;;6221838;23;20434;-77
2023/01/27 01:03:36;;;;;;;2.22;0.60;;;6.90;99.90;;;;;;6221549;23;20055;-76
2023/01/27 01:06:05;;;;;;;2.50;0.93;;;6.90;99.90;;;;;;6221687;23;20079;-77
2023/01/27 01:08:32;;;;;;;2.47;0.60;;;6.90;99.90;;;;;;6221883;23;20003;-77
2023/01/27 01:10:58;;;;;;;1.27;0.47;;;6.90;99.90;;;;;;6220171;23;20330;-77
2023/01/27 01:13:26;;;;;;;0.50;0.40;;;6.80;99.90;;;;;;6221634;23;20010;-77
2023/01/27 01:15:52;;;;;;;2.20;0.60;;;6.90;99.90;;;;;;6221562;23;20028;-77
2023/01/27 01:18:17;;;;;;;1.55;0.52;;;6.80;99.90;;;;;;6220006;23;20004;-77
2023/01/27 01:20:45;;;;;;;3.58;0.93;;;6.80;99.90;;;;;;6219787;23;20386;-77
2023/01/27 01:23:12;;;;;;;1.75;0.52;;;6.90;99.90;;;;;;6221501;23;19997;-77
2023/01/27 01:25:38;;;;;;;1.45;0.60;;;6.90;99.90;;;;;;6219909;23;20592;-77
2023/01/27 01:28:05;;;;;;;3.05;0.57;;;6.90;99.90;;;;;;6221449;23;20024;-77
2023/01/27 01:30:32;;;;;;;3.33;0.60;;;6.90;99.90;;;;;;6221297;23;20095;-77
2023/01/27 01:32:58;;;;;;;2.88;0.60;;;6.90;99.90;;;;;;6221356;23;20001;-77
2023/01/27 01:35:24;;;;;;;1.08;0.40;;;6.90;99.90;;;;;;6219445;23;20401;-76
2023/01/27 01:37:51;;;;;;;2.47;0.70;;;6.80;99.90;;;;;;6221332;23;20026;-77
2023/01/27 01:40:17;;;;;;;2.63;0.60;;;6.90;99.90;;;;;;6221474;23;20008;-77
2023/01/27 01:42:51;;;;;;;1.40;0.50;;;6.80;99.90;;;;;;6221120;23;20057;-78
2023/01/27 01:45:32;;;;;;;1.42;0.50;;;6.80;99.90;;;;;;6221421;23;20080;-77
2023/01/27 01:48:10;;;;;;;0.68;0.35;;;6.80;99.90;;;;;;6221086;23;19996;-77
2023/01/27 01:50:38;;;;;;;0.63;0.30;;;6.80;99.90;;;;;;6221066;23;20083;-78
2023/01/27 01:53:05;;;;;;;1.73;0.40;;;6.80;99.90;;;;;;6221253;23;20004;-77
2023/01/27 01:55:34;;;;;;;1.27;0.50;;;6.80;99.90;;;;;;6221297;23;20007;-77
2023/01/27 01:58:01;;;;;;;1.42;0.50;;;6.80;99.90;;;;;;6221547;23;20005;-77
2023/01/27 02:00:27;;;;;;;1.58;0.40;;;6.80;99.90;;;;;;6219510;23;20008;-78
2023/01/27 02:02:53;;;;;;;2.60;0.60;;;6.80;99.90;;;;;;6221251;23;20028;-78
2023/01/27 02:05:36;;;;;;;1.80;0.50;;;6.80;99.90;;;;;;6221052;23;20074;-77
2023/01/27 02:08:16;;;;;;;0.60;0.38;;;6.80;99.90;;;;;;6219874;23;20024;-78
2023/01/27 02:10:42;;;;;;;1.38;0.30;;;6.80;99.90;;;;;;6221298;23;20373;-77
2023/01/27 02:13:08;;;;;;;0.47;0.20;;;6.70;99.90;;;;;;6221063;23;20087;-79
2023/01/27 02:15:34;;;;;;;1.52;0.40;;;6.70;99.90;;;;;;6220335;23;20080;-77
2023/01/27 02:18:01;;;;;;;1.58;0.40;;;6.80;99.90;;;;;;6220092;23;20051;-77
2023/01/27 02:20:36;;;;;;;0.80;0.30;;;6.70;99.90;;;;;;6220319;23;20011;-78
2023/01/27 02:23:20;;;;;;;1.35;0.40;;;6.70;99.90;;;;;;6220627;23;19996;-77
2023/01/27 02:26:04;;;;;;;;;;;6.70;99.90;;;;;;6221024;23;20020;-77
2023/01/27 02:28:30;;;;;;;0.85;0.40;;;6.70;99.90;;;;;;6220616;23;19984;-76
2023/01/27 02:30:56;;;;;;;0.90;0.30;;;6.60;99.90;;;;;;6219029;23;20013;-77
2023/01/27 02:33:22;;;;;;;0.70;0.30;;;6.60;99.90;;;;;;6220852;23;20080;-77
2023/01/27 02:35:57;;;;;;;0.38;0.20;;;6.60;99.90;;;;;;6220651;23;20001;-77
2023/01/27 02:38:25;;;;;;;1.02;0.30;;;6.60;99.90;;;;;;6221145;23;20028;-77
2023/01/27 02:40:56;;;;;;;0.85;0.20;;;6.60;99.90;;;;;;6219428;23;20009;-77
2023/01/27 02:43:22;;;;;;;1.65;0.35;;;6.60;99.90;;;;;;6219399;23;20399;-77
2023/01/27 02:45:48;;;;;;;0.65;0.30;;;6.60;99.90;;;;;;6220848;23;20000;-77
2023/01/27 02:48:13;;;;;;;1.23;0.30;;;6.60;99.90;;;;;;6218942;23;20146;-77
2023/01/27 02:50:39;;;;;;;1.95;0.43;;;6.60;99.90;;;;;;6220538;23;20007;-77
2023/01/27 02:53:06;;;;;;;0.30;0.20;;;6.60;99.90;;;;;;6220416;23;20460;-77
2023/01/27 02:55:32;;;;;;;0.55;0.30;;;6.60;99.90;;;;;;6220951;23;20487;-77
2023/01/27 02:57:57;;;;;;;0.47;0.20;;;6.60;99.90;;;;;;6220554;23;20011;-77
2023/01/27 03:00:23;;;;;;;0.68;0.20;;;6.60;99.90;;;;;;6219341;23;20373;-77
2023/01/27 03:02:49;;;;;;;0.70;0.30;;;6.50;99.90;;;;;;6218757;23;20029;-76
2023/01/27 03:05:14;;;;;;;1.08;0.30;;;6.50;99.90;;;;;;6218623;23;20001;-77
2023/01/27 03:07:41;;;;;;;0.80;0.30;;;6.60;99.90;;;;;;6219052;23;20004;-77
2023/01/27 03:10:07;;;;;;;0.70;0.20;;;6.60;99.90;;;;;;6220623;23;20001;-77
2023/01/27 03:12:33;;;;;;;1.20;0.30;;;6.60;99.90;;;;;;6220172;23;20028;-76
2023/01/27 03:20:27;;;;;;;1.95;0.50;;;6.50;99.90;;;;;;6220243;23;20031;-76
2023/01/27 03:22:53;;;;;;;0.95;0.30;;;6.50;99.90;;;;;;6220401;23;20377;-77
2023/01/27 03:25:18;;;;;;;1.33;0.40;;;6.50;99.90;;;;;;6218759;23;20001;-77
2023/01/27 03:27:44;;;;;;;2.85;0.40;;;6.50;99.90;;;;;;6220427;23;20426;-78
2023/01/27 03:30:10;;;;;;;1.00;0.40;;;6.50;99.90;;;;;;6220648;23;20043;-77
2023/01/27 03:32:36;;;;;;;1.85;0.60;;;6.50;99.90;;;;;;6220416;23;20054;-77
2023/01/27 03:35:02;;;;;;;3.13;0.50;;;6.60;99.90;;;;;;6220317;23;20091;-77
2023/01/27 03:48:35;;;;;;;1.88;0.60;;;6.60;99.90;;;;;;6220047;23;20054;-77
2023/01/27 03:51:04;;;;;;;2.38;0.50;;;6.60;99.90;;;;;;6219988;23;20333;-77
2023/01/27 03:53:30;;;;;;;3.20;0.40;;;6.60;99.90;;;;;;6220395;23;20008;-77
2023/01/27 03:55:55;;;;;;;1.98;0.52;;;6.60;99.90;;;;;;6220452;23;20418;-77
2023/01/27 03:58:26;;;;;;;0.95;0.40;;;6.60;99.90;;;;;;6220341;23;20004;-77
2023/01/27 04:00:54;;;;;;;2.55;0.55;;;6.60;99.90;;;;;;6220193;23;20114;-76
2023/01/27 04:08:58;;;;;;;3.17;0.68;;;6.60;99.90;;;;;;6220022;23;20068;-76
2023/01/27 04:14:09;;;;;;;1.95;0.50;;;6.60;99.90;;;;;;6219967;23;20078;-77
2023/01/27 04:16:35;;;;;;;1.27;0.35;;;6.60;99.90;;;;;;6219868;23;20016;-77
2023/01/27 04:19:03;;;;;;;1.70;0.63;;;6.60;99.90;;;;;;6220017;23;20032;-77
2023/01/27 04:21:29;;;;;;;2.83;0.60;;;6.60;99.90;;;;;;6219757;23;20372;-77
2023/01/27 04:23:55;;;;;;;2.22;0.63;;;6.60;99.90;;;;;;6220044;23;20035;-76
2023/01/27 04:26:21;;;;;;;0.88;0.40;;;6.60;99.90;;;;;;6220050;23;20001;-77
2023/01/27 04:28:48;;;;;;;2.38;0.60;;;6.60;99.90;;;;;;6220170;23;20460;-76
2023/01/27 04:31:14;;;;;;;3.42;0.60;;;6.60;99.90;;;;;;6222352;23;20513;-76
2023/01/27 04:33:41;;;;;;;1.10;0.32;;;6.60;99.90;;;;;;6222370;23;20035;-78
2023/01/27 04:36:07;;;;;;;1.80;0.30;;;6.50;99.90;;;;;;6220644;23;20058;-78
2023/01/27 04:38:33;;;;;;;2.22;0.70;;;6.50;99.90;;;;;;6220379;23;20091;-78
2023/01/27 04:40:59;;;;;;;1.23;0.38;;;6.40;99.90;;;;;;6221948;23;20004;-76
2023/01/27 04:43:25;;;;;;;2.63;0.50;;;6.40;99.90;;;;;;6220102;23;20083;-77
2023/01/27 04:45:51;;;;;;;1.98;0.50;;;6.40;99.90;;;;;;6220430;23;20008;-76
2023/01/27 04:48:16;;;;;;;1.02;0.40;;;6.30;99.90;;;;;;6221574;23;20000;-77
2023/01/27 04:50:42;;;;;;;1.25;0.40;;;6.20;99.90;;;;;;6221738;23;20009;-77
2023/01/27 04:53:08;;;;;;;3.67;0.68;;;6.20;99.90;;;;;;6221900;23;20011;-77
2023/01/27 04:55:33;;;;;;;1.50;0.50;;;6.10;99.90;;;;;;6221997;23;20012;-77
2023/01/27 04:57:59;;;;;;;0.75;0.40;;;6.10;99.90;;;;;;6221911;23;20001;-77
2023/01/27 05:00:25;;;;;;;1.33;0.40;;;6.10;99.90;;;;;;6220351;23;20016;-77
2023/01/27 05:02:50;;;;;;;4.25;0.63;;;6.00;99.90;;;;;;6221832;23;20327;-78
2023/01/27 05:05:16;;;;;;;1.05;0.20;;;6.00;99.90;;;;;;6221447;23;20008;-77
2023/01/27 05:07:42;;;;;;;1.70;0.40;;;5.90;99.90;;;;;;6221693;23;20311;-78
2023/01/27 05:10:08;;;;;;;1.25;0.35;;;5.90;99.90;;;;;;6221417;23;20611;-78
2023/01/27 05:12:34;;;;;;;1.05;0.40;;;5.90;99.90;;;;;;6221497;23;20438;-78
2023/01/27 05:14:59;;;;;;;1.10;0.30;;;5.90;99.90;;;;;;6221492;23;20101;-77
2023/01/27 05:17:29;;;;;;;2.58;0.40;;;5.80;99.90;;;;;;6221556;23;20000;-78
2023/01/27 05:19:54;;;;;;;1.40;0.50;;;5.80;99.90;;;;;;6220977;23;20000;-78
2023/01/27 05:22:20;;;;;;;0.55;0.20;;;5.80;99.90;;;;;;6221696;23;20059;-78
2023/01/27 05:24:46;;;;;;;0.75;0.38;;;5.80;99.90;;;;;;6221353;23;20001;-77
2023/01/27 05:27:11;;;;;;;1.80;0.30;;;5.80;99.90;;;;;;6221607;23;20082;-76
2023/01/27 05:29:37;;;;;;;0.73;0.30;;;5.80;99.90;;;;;;6219695;23;20074;-77
2023/01/27 05:32:03;;;;;;;1.40;0.28;;;5.70;99.90;;;;;;6221330;23;20040;-78
2023/01/27 05:34:28;;;;;;;1.40;0.30;;;5.70;99.90;;;;;;6219719;23;20437;-77
2023/01/27 05:36:54;;;;;;;0.45;0.30;;;5.70;99.90;;;;;;6221217;23;20005;-77
2023/01/27 05:39:19;;;;;;;0.68;0.22;;;5.70;99.90;;;;;;6221134;23;20004;-78
2023/01/27 05:41:45;;;;;;;0.65;0.30;;;5.70;99.90;;;;;;6219925;23;20426;-77
2023/01/27 05:44:11;;;;;;;0.88;0.30;;;5.70;99.90;;;;;;6221268;23;19997;-77
2023/01/27 05:46:39;;;;;;;1.15;0.30;;;5.70;99.90;;;;;;6221472;23;19996;-77
2023/01/27 05:49:05;;;;;;;1.00;0.40;;;5.60;99.90;;;;;;6221261;23;19997;-77
2023/01/27 05:51:34;;;;;;;0.65;0.20;;;5.60;99.90;;;;;;6221144;23;20004;-77
2023/01/27 05:53:59;;;;;;;1.25;0.40;;;5.60;99.90;;;;;;6221220;23;20022;-77
2023/01/27 05:56:25;;;;;;;0.68;0.20;;;5.60;99.90;;;;;;6221209;23;20007;-77
2023/01/27 05:58:56;;;;;;;0.80;0.50;;;5.60;99.90;;;;;;6220041;23;20083;-76
2023/01/27 06:01:24;;;;;;;4.63;0.73;;;5.60;99.90;;;;;;6221103;23;20005;-76
2023/01/27 06:03:50;;;;;;;2.20;0.30;;;5.50;99.90;;;;;;6221218;23;19996;-76
2023/01/27 06:06:19;;;;;;;2.15;0.50;;;5.50;99.90;;;;;;6221099;23;19997;-76
2023/01/27 06:08:45;;;;;;;1.08;0.35;;;5.50;99.90;;;;;;6221267;23;20456;-77
2023/01/27 06:11:11;;;;;;;0.75;0.40;;;5.50;99.90;;;;;;6221262;23;20004;-76
2023/01/27 06:13:37;;;;;;;1.70;0.40;;;5.50;99.90;;;;;;6219587;23;20005;-76
2023/01/27 06:16:06;;;;;;;3.70;0.57;;;5.50;99.90;;;;;;6220468;23;20001;-77
2023/01/27 06:18:31;;;;;;;1.35;0.60;;;5.50;99.90;;;;;;6220917;23;20067;-76
2023/01/27 06:21:01;;;;;;;1.35;0.30;;;5.50;99.90;;;;;;6220583;23;20005;-77
2023/01/27 06:23:28;;;;;;;0.63;0.30;;;5.50;99.90;;;;;;6220703;23;20023;-77
2023/01/27 06:25:54;;;;;;;1.02;0.40;;;5.40;99.90;;;;;;6219281;23;20497;-76
2023/01/27 06:28:20;;;;;;;2.47;0.70;;;5.50;99.90;;;;;;6219156;23;20084;-77
2023/01/27 06:30:46;;;;;;;1.58;0.30;;;5.40;99.90;;;;;;6220994;23;20004;-76
2023/01/27 06:33:12;;;;;;;2.58;0.50;;;5.40;99.90;;;;;;6220935;23;20028;-76
2023/01/27 06:35:39;;;;;;;1.38;0.45;;;5.40;99.90;;;;;;6219312;23;20031;-76
2023/01/27 06:38:07;;;;;;;2.97;0.40;;;5.40;99.90;;;;;;6220854;23;20000;-76
2023/01/27 06:40:34;;;;;;;0.55;0.28;;;5.40;99.90;;;;;;6220529;23;20400;-76
2023/01/27 06:43:00;;;;;;;0.50;0.28;;;5.40;99.90;;;;;;6220590;23;20410;-76
2023/01/27 06:45:26;;;;;;;1.13;0.50;;;5.40;99.90;;;;;;6218803;23;20422;-76
2023/01/27 06:48:00;;;;;;;2.30;0.40;;;5.40;99.90;;;;;;6220234;23;20349;-76
2023/01/27 06:50:28;;;;;;;2.55;0.30;;;5.40;99.90;;;;;;6220408;23;20076;-76
2023/01/27 06:53:02;;;;;;;0.95;0.30;;;5.30;99.90;;;;;;6220109;23;20008;-76
2023/01/27 06:55:29;;;;;;;1.15;0.43;;;5.40;99.90;;;;;;6220510;23;20007;-75
2023/01/27 06:57:54;;;;;;;1.33;0.25;;;5.30;99.90;;;;;;6220650;23;20008;-77
2023/01/27 07:00:20;;;;;;;0.70;0.30;;;5.40;99.90;;;;;;6219834;23;20012;-76
2023/01/27 07:02:46;;;;;;;1.50;0.35;;;5.40;99.90;;;;;;6220737;23;20007;-76
2023/01/27 07:05:12;;;;;;;1.42;0.30;;;5.40;99.90;;;;;;6218793;23;20000;-76
2023/01/27 07:07:38;;;;;;;0.43;0.30;;;5.40;99.90;;;;;;6220760;23;20074;-76
2023/01/27 07:10:05;;;;;;;1.00;0.40;;;5.40;99.90;;;;;;6220700;23;20051;-76
2023/01/27 07:12:33;;;;;;;0.80;0.30;;;5.40;99.90;;;;;;6220296;23;20004;-76
2023/01/27 07:14:59;;;;;;;1.55;0.40;;;5.40;99.90;;;;;;6220088;23;20030;-76
2023/01/27 07:17:25;;;;;;;1.90;0.40;;;5.40;99.90;;;;;;6219982;23;20008;-77
2023/01/27 07:19:50;;;;;;;0.98;0.40;;;5.40;99.90;;;;;;6219416;23;20012;-76
2023/01/27 07:22:16;;;;;;;1.67;0.50;;;5.40;99.90;;;;;;6220129;23;20028;-76
2023/01/27 07:24:41;;;;;;;1.58;0.50;;;5.40;99.90;;;;;;6219962;23;19997;-76
2023/01/27 07:27:07;;;;;;;1.20;0.40;;;5.40;99.90;;;;;;6218324;23;20028;-76
2023/01/27 07:29:33;;;;;;;0.22;0.10;;;5.40;99.90;;;;;;6219846;23;20021;-70
2023/01/27 07:31:58;;;;;;;0.40;0.20;;;5.40;99.90;;;;;;6220265;23;20011;-71
2023/01/27 07:34:24;;;;;;;1.95;0.52;;;5.50;99.90;;;;;;6220434;23;20133;-70
2023/01/27 07:36:50;;;;;;;2.45;0.40;;;5.50;99.90;;;;;;6219707;23;20005;-71
2023/01/27 07:39:16;;;;;;;2.25;0.40;;;5.50;99.90;;;;;;6219477;23;20009;-71
2023/01/27 07:41:42;;;;;;;0.80;0.30;;;5.50;99.90;;;;;;6219668;23;19997;-71
2023/01/27 07:44:09;;;;;;;1.73;0.40;;;5.40;99.90;;;;;;6220284;23;20387;-70
2023/01/27 07:46:35;;;;;;;0.95;0.40;;;5.40;99.90;;;;;;6219377;23;20410;-70
2023/01/27 07:49:00;;;;;;;2.15;0.43;;;5.40;99.90;;;;;;6217984;23;20027;-70
2023/01/27 07:51:26;;;;;;;1.40;0.50;;;5.40;99.90;;;;;;6219720;23;20413;-70
2023/01/27 07:53:52;;;;;;;2.20;0.25;;;5.40;99.90;;;;;;6219790;23;20014;-70
2023/01/27 07:56:17;;;;;;;1.08;0.50;;;5.40;99.90;;;;;;6219848;23;20000;-71
2023/01/27 07:58:43;;;;;;;1.75;0.40;;;5.40;99.90;;;;;;6218159;23;20035;-70
2023/01/27 08:01:10;;;;;;;1.10;0.35;;;5.40;99.90;;;;;;6218899;23;20039;-71
2023/01/27 08:03:37;;;;;;;2.28;0.40;;;5.40;99.90;;;;;;6221288;23;20449;-72
2023/01/27 08:06:07;;;;;;;2.20;0.47;;;5.40;99.90;;;;;;6219728;23;20004;-78
2023/01/27 08:08:33;;;;;;;0.75;0.55;;;5.40;99.90;;;;;;6218865;23;20520;-75
2023/01/27 08:11:01;;;;;;;0.90;0.38;;;5.40;99.90;;;;;;6221223;23;20422;-73
2023/01/27 08:13:26;;;;;;;1.30;0.40;;;5.50;99.90;;;;;;6221589;23;20005;-74
2023/01/27 08:15:57;;;;;;;0.73;0.30;;;5.50;99.90;;;;;;6220302;23;20016;-73
2023/01/27 08:18:23;;;;;;;1.85;0.38;;;5.40;99.90;;;;;;6221411;23;20012;-73
2023/01/27 08:20:51;;;;;;;6.10;0.50;;;5.50;99.90;;;;;;6222852;23;20099;-73
2023/01/27 08:23:17;;;;;;;2.95;0.55;;;5.50;99.90;;;;;;6222930;23;20026;-73
2023/01/27 08:25:52;;;;;;;0.70;0.50;;;5.50;99.90;;;;;;6223214;23;20004;-73
2023/01/27 08:28:19;;;;;;;1.08;0.50;;;5.50;99.90;;;;;;6217813;23;20502;-75
2023/01/27 08:30:46;;;;;;;0.80;0.30;;;5.50;99.90;;;;;;6219902;23;20058;-72
2023/01/27 08:33:12;;;;;;;1.42;0.50;;;5.50;99.90;;;;;;6222355;23;20050;-73
2023/01/27 08:35:41;;;;;;;2.42;0.60;;;5.50;99.90;;;;;;6220814;23;20059;-73
2023/01/27 08:38:07;;;;;;;1.80;0.40;;;5.50;99.90;;;;;;6223414;23;20004;-73
2023/01/27 08:40:33;;;;;;;2.65;0.40;;;5.50;99.90;;;;;;6223365;23;20092;-72
2023/01/27 08:43:00;;;;;;;1.25;0.43;;;5.50;99.90;;;;;;6221118;23;20076;-72
2023/01/27 08:45:26;;;;;;;0.65;0.40;;;5.60;99.90;;;;;;6220832;23;20000;-72
2023/01/27 08:47:52;;;;;;;2.80;0.40;;;5.60;99.90;;;;;;6222534;23;20440;-72
2023/01/27 08:50:18;;;;;;;0.80;0.40;;;5.60;99.90;;;;;;6222684;23;20009;-72
2023/01/27 08:52:43;;;;;;;2.40;0.50;;;5.60;99.90;;;;;;6222867;23;20043;-73
2023/01/27 08:55:09;;;;;;;2.20;0.30;;;5.60;99.90;;;;;;6223137;23;20005;-72
2023/01/27 08:57:35;;;;;;;1.80;0.50;;;5.60;99.90;;;;;;6223283;23;20377;-72
2023/01/27 09:00:02;;;;;;;1.33;0.57;;;5.70;99.90;;;;;;6223190;23;20000;-72
2023/01/27 09:02:28;;;;;;;2.28;0.52;;;5.70;99.90;;;;;;6221341;23;20001;-72
2023/01/27 09:04:54;;;;;;;1.10;0.45;;;5.70;99.90;;;;;;6223101;23;20051;-72
2023/01/27 09:07:19;;;;;;;1.00;0.57;;;5.70;99.90;;;;;;6221530;23;20059;-72
2023/01/27 09:09:47;;;;;;;1.02;0.40;;;5.80;99.90;;;;;;6223571;23;20011;-72
2023/01/27 09:12:12;;;;;;;1.80;0.50;;;5.80;99.90;;;;;;6223641;23;20032;-72
2023/01/27 09:14:39;;;;;;;1.58;0.82;;;5.80;99.90;;;;;;6222088;23;20000;-72
2023/01/27 09:17:04;;;;;;;1.08;0.40;;;5.80;99.90;;;;;;6221715;23;20384;-72
2023/01/27 09:19:30;;;;;;;1.85;0.57;;;5.90;99.90;;;;;;6221458;23;20083;-72
2023/01/27 09:21:56;;;;;;;0.38;0.30;;;5.90;99.90;;;;;;6221828;23;19996;-72
2023/01/27 09:24:21;;;;;;;1.00;0.40;;;5.90;99.90;;;;;;6221893;23;20000;-72
2023/01/27 09:26:47;;;;;;;1.38;0.65;;;5.90;99.90;;;;;;6221814;23;19997;-72
2023/01/27 09:29:13;;;;;;;1.30;0.50;;;6.00;99.90;;;;;;6221456;23;20017;-72
2023/01/27 09:31:38;;;;;;;1.30;0.65;;;6.00;99.90;;;;;;6221494;23;20039;-72
2023/01/27 09:34:04;;;;;;;0.63;0.40;;;6.00;99.90;;;;;;6221652;23;20488;-72
2023/01/27 09:36:34;;;;;;;1.75;0.63;;;6.10;99.90;;;;;;6220993;23;20000;-72
2023/01/27 09:39:06;;;;;;;1.35;0.60;;;6.10;99.90;;;;;;6221482;23;20058;-72
2023/01/27 09:42:16;;;;;;;1.52;0.50;;;6.10;99.90;;;;;;6219282;23;20011;-72
2023/01/27 09:44:47;;;;;;;1.27;0.40;;;6.10;99.90;;;;;;6158786;23;20740;-72
2023/01/27 09:47:49;;;;;;;1.70;0.50;;;6.10;99.90;;;;;;6158821;23;20001;-73
2023/01/27 09:50:23;;;;;;;0.88;0.60;;;6.20;99.90;;;;;;6205042;23;20016;-73
2023/01/27 09:53:00;;;;;;;0.95;0.40;;;6.20;99.90;;;;;;6221101;23;20008;-72
2023/01/27 09:55:47;;;;;;;1.00;0.43;;;6.20;99.90;;;;;;6221338;23;20000;-72
2023/01/27 09:58:18;;;;;;;0.93;0.40;;;6.30;99.90;;;;;;6221353;23;20334;-72
2023/01/27 10:00:54;;;;;;;3.25;0.47;;;6.30;99.90;;;;;;6221023;23;20005;-72
2023/01/27 10:03:54;;;;;;;1.08;0.43;;;6.30;99.90;;;;;;6221014;23;20071;-72
2023/01/27 10:06:35;;;;;;;0.57;0.47;;;6.40;99.90;;;;;;6220663;23;21144;-72
2023/01/27 10:09:18;;;;;;;2.28;0.47;;;6.40;99.90;;;;;;6221179;23;20000;-72
2023/01/27 10:12:13;;;;;;;2.17;0.50;;;6.40;99.90;;;;;;6220903;23;20024;-73
2023/01/27 10:14:56;;;;;;;1.05;0.38;;;6.50;99.90;;;;;;6220982;23;20080;-73
2023/01/27 10:17:24;;;;;;;1.67;0.50;;;6.50;99.90;;;;;;6221115;23;20000;-72
2023/01/27 10:20:05;;;;;;;0.77;0.47;;;6.50;99.90;;;;;;6220780;23;20000;-72
2023/01/27 10:22:42;;;;;;;0.70;0.40;;;6.60;99.90;;;;;;6221080;23;20035;-72
2023/01/27 10:25:19;;;;;;;1.17;0.40;;;6.60;99.90;;;;;;6220964;23;20330;-72
2023/01/27 10:27:57;;;;;;;0.82;0.40;;;6.70;99.90;;;;;;6220751;23;20071;-72
2023/01/27 10:30:43;;;;;;;2.35;0.50;;;6.70;99.90;;;;;;6220627;23;20016;-72
2023/01/27 10:33:20;;;;;;;1.10;0.30;;;6.70;99.90;;;;;;6221098;23;20000;-72
2023/01/27 10:35:58;;;;;;;0.63;0.45;;;6.80;99.90;;;;;;6220848;23;20385;-73
2023/01/27 10:38:48;;;;;;;0.95;0.40;;;6.80;99.90;;;;;;6219018;23;20012;-72
2023/01/27 10:41:29;;;;;;;0.85;0.30;;;6.90;99.90;;;;;;6220849;23;20425;-73
2023/01/27 10:44:13;;;;;;;0.68;0.40;;;6.90;99.90;;;;;;6220914;23;20055;-72
2023/01/27 10:46:53;;;;;;;1.17;0.40;;;6.90;99.90;;;;;;6220615;23;20001;-72
2023/01/27 10:49:27;;;;;;;0.77;0.40;;;6.90;99.90;;;;;;6220380;23;20403;-72
2023/01/27 10:52:03;;;;;;;1.20;0.40;;;7.00;99.90;;;;;;6220546;23;20484;-72
2023/01/27 10:54:37;;;;;;;0.30;0.22;;;7.10;99.90;;;;;;6220497;23;20008;-71
2023/01/27 10:57:21;;;;;;;1.60;0.30;;;7.10;99.90;;;;;;6220800;23;20005;-71
2023/01/27 11:00:10;;;;;;;0.40;0.30;;;7.20;99.90;;;;;;6220573;23;20059;-71
2023/01/27 11:02:51;;;;;;;0.85;0.30;;;7.20;99.90;;;;;;6220482;23;20001;-72
2023/01/27 11:05:27;;;;;;;0.60;0.30;;;7.20;99.90;;;;;;6220505;23;20001;-72
2023/01/27 11:08:02;;;;;;;0.93;0.30;;;7.30;99.90;;;;;;6218738;23;20008;-72
2023/01/27 11:11:42;;;;;;;1.63;0.40;;;7.30;99.90;;;;;;6218892;23;20028;-72
2023/01/27 11:13:27;;;;;;;1.02;0.30;;;7.40;99.90;;;;;;6220334;23;20509;-72
2023/01/27 11:15:53;;;;;;;0.98;0.30;;;7.40;99.90;;;;;;6219903;23;20001;-72
2023/01/27 11:18:22;;;;;;;1.25;0.55;;;7.50;99.90;;;;;;6220344;23;20016;-72
2023/01/27 11:21:10;;;;;;;1.05;0.38;;;7.50;99.90;;;;;;6220130;23;20027;-73
2023/01/27 11:23:45;;;;;;;1.15;0.30;;;7.50;99.90;;;;;;6219015;23;20377;-73
2023/01/27 11:26:25;;;;;;;1.38;0.40;;;7.60;99.90;;;;;;6218445;23;20001;-72
2023/01/27 11:28:54;;;;;;;0.70;0.32;;;7.50;99.90;;;;;;6220517;23;20012;-72
2023/01/27 11:31:50;;;;;;;1.30;0.43;;;7.50;99.90;;;;;;6220482;23;20016;-72
2023/01/27 11:34:18;;;;;;;0.30;0.30;;;7.50;99.90;;;;;;6220636;23;20008;-72
2023/01/27 11:36:44;;;;;;;1.67;0.40;;;7.50;99.90;;;;;;6218200;23;20004;-72
2023/01/27 11:39:13;;;;;;;0.90;0.40;;;7.40;99.90;;;;;;6218534;23;20100;-72
2023/01/27 11:41:57;;;;;;;0.70;0.38;;;7.40;99.90;;;;;;6220242;23;20036;-72
2023/01/27 11:44:32;;;;;;;;;;;7.40;99.90;;;;;;6220690;23;20071;-72
2023/01/27 11:46:58;;;;;;;0.35;0.20;;;7.40;99.90;;;;;;6215958;23;19914;-69
2023/01/27 11:49:32;;;;;;;1.10;0.20;;;7.50;99.90;;;;;;6219410;23;20025;-71
2023/01/27 11:52:10;;;;;;;1.08;0.40;;;7.40;99.90;;;;;;6219508;23;20123;-70
2023/01/27 11:54:43;;;;;;;0.60;0.40;;;7.40;99.90;;;;;;6217293;23;20080;-71
2023/01/27 11:57:21;;;;;;;0.75;0.50;;;7.40;99.90;;;;;;6219837;23;19997;-71
2023/01/27 11:59:50;;;;;;;0.63;0.40;;;7.30;99.90;;;;;;6220565;23;20008;-73
2023/01/27 12:02:35;;;;;;;0.60;0.30;;;7.30;99.90;;;;;;6219807;23;20043;-72
2023/01/27 12:05:20;;;;;;;0.75;0.30;;;7.40;99.90;;;;;;6217218;23;20005;-70
2023/01/27 12:07:56;;;;;;;0.30;0.30;;;7.40;99.90;;;;;;6217448;23;20001;-69
2023/01/27 12:10:23;;;;;;;1.17;0.43;;;7.40;99.90;;;;;;6221214;23;20082;-70
2023/01/27 12:12:49;;;;;;;0.88;0.40;;;7.40;99.90;;;;;;6221636;23;20019;-70
2023/01/27 12:15:17;;;;;;;0.43;0.32;;;7.30;99.90;;;;;;6218928;23;20438;-70
2023/01/27 12:17:47;;;;;;;1.30;0.45;;;7.40;99.90;;;;;;6219969;23;20000;-70
2023/01/27 12:20:26;;;;;;;0.80;0.40;;;7.40;99.90;;;;;;6219550;23;20039;-68
2023/01/27 12:22:55;;;;;;;0.80;0.40;;;7.40;99.90;;;;;;6218082;23;20429;-68
2023/01/27 12:25:26;;;;;;;0.93;0.50;;;7.50;99.90;;;;;;6219912;23;20488;-69
2023/01/27 12:27:56;;;;;;;1.23;0.45;;;7.40;99.90;;;;;;6221402;23;20024;-72
2023/01/27 12:30:25;;;;;;;0.80;0.40;;;7.50;99.90;;;;;;6222959;23;20012;-72
2023/01/27 12:32:52;;;;;;;0.65;0.40;;;7.50;99.90;;;;;;6221380;23;20004;-71
2023/01/27 12:35:27;;;;;;;1.42;0.55;;;7.60;99.90;;;;;;6221003;23;20009;-71
2023/01/27 12:38:11;;;;;;;0.57;0.30;;;7.60;99.90;;;;;;6222136;23;20000;-71
2023/01/27 12:40:40;;;;;;;1.30;0.57;;;7.60;99.90;;;;;;6220874;23;20016;-72
2023/01/27 12:43:19;;;;;;;1.15;0.45;;;7.60;99.90;;;;;;6222206;23;20003;-72
2023/01/27 12:46:01;;;;;;;1.25;0.40;;;7.50;99.90;;;;;;6221933;23;20001;-72
2023/01/27 12:48:30;;;;;;;1.07;0.37;;;7.50;99.90;;;;;;6220742;23;20007;-71
2023/01/27 12:51:04;;;;;;;1.52;0.60;;;7.40;99.90;;;;;;6224922;23;20004;-73
2023/01/27 12:53:30;;;;;;;0.95;0.60;;;7.40;99.90;;;;;;6225104;23;20035;-72
2023/01/27 12:56:03;;;;;;;1.58;0.57;;;7.30;99.90;;;;;;6223609;23;20011;-72
2023/01/27 12:58:37;;;;;;;0.90;0.40;;;7.30;99.90;;;;;;6224493;23;20026;-71
2023/01/27 13:01:26;;;;;;;0.68;0.32;;;7.40;99.90;;;;;;6224955;23;20425;-72
2023/01/27 13:03:56;;;;;;;0.75;0.40;;;7.40;99.90;;;;;;6225065;23;20421;-72
2023/01/27 13:06:36;;;;;;;0.40;0.30;;;7.30;99.90;;;;;;6221970;23;20000;-71
2023/01/27 13:09:02;;;;;;;2.30;0.30;;;7.30;99.90;;;;;;6224427;23;19996;-71
2023/01/27 13:11:38;;;;;;;0.30;0.30;;;7.30;99.90;;;;;;6221461;23;20067;-71
2023/01/27 13:14:14;;;;;;;1.20;0.43;;;7.40;99.90;;;;;;6219674;23;20059;-71
2023/01/27 13:16:40;;;;;;;1.13;0.50;;;7.40;99.90;;;;;;6219498;23;20015;-71
2023/01/27 13:19:16;;;;;;;0.50;0.32;;;7.40;99.90;;;;;;6221580;23;20392;-71
2023/01/27 13:21:43;;;;;;;0.63;0.40;;;7.50;99.90;;;;;;6221001;23;20027;-71
2023/01/27 13:24:20;;;;;;;1.85;0.60;;;7.50;99.90;;;;;;6218625;23;20000;-72
2023/01/27 13:26:48;;;;;;;1.10;0.50;;;7.40;99.90;;;;;;6221340;23;20004;-71
2023/01/27 13:29:19;;;;;;;0.65;0.40;;;7.30;99.90;;;;;;6221495;23;20406;-71
2023/01/27 13:32:05;;;;;;;2.17;0.60;;;7.40;99.90;;;;;;6221481;23;20341;-72
2023/01/27 13:34:45;;;;;;;1.70;0.55;;;7.40;99.90;;;;;;6220854;23;20116;-72
2023/01/27 13:37:19;;;;;;;0.90;0.40;;;7.40;99.90;;;;;;6221609;23;20024;-73
2023/01/27 13:40:15;;;;;;;1.30;0.50;;;7.40;99.90;;;;;;6221532;23;20337;-71
2023/01/27 13:42:41;;;;;;;0.77;0.50;;;7.50;99.90;;;;;;6221419;23;20005;-73
2023/01/27 13:45:14;;;;;;;1.33;0.40;;;7.50;99.90;;;;;;6220545;23;20041;-72
2023/01/27 13:47:50;;;;;;;1.98;0.55;;;7.50;99.90;;;;;;6221171;23;20047;-72